createdAt,value
2023-03-16T00:00:46.333Z,4.22
2023-03-16T00:03:19.312Z,4.75
2023-03-16T00:05:47.299Z,4.45
2023-03-16T00:08:14.324Z,3.83
2023-03-16T00:10:46.675Z,4.05
2023-03-16T00:13:14.839Z,4.50
2023-03-16T00:15:42.531Z,4.30
2023-03-16T00:18:09.016Z,4.25
2023-03-16T00:20:35.657Z,4.47
2023-03-16T00:23:02.777Z,4.60
2023-03-16T00:25:29.666Z,4.07
2023-03-16T00:27:55.997Z,4.60
2023-03-16T00:30:23.045Z,4.65
2023-03-16T00:32:49.506Z,4.32
2023-03-16T00:35:15.961Z,4.38
2023-03-16T00:37:43.607Z,4.75
2023-03-16T00:40:12.182Z,5.03
2023-03-16T00:42:38.647Z,4.53
2023-03-16T00:45:05.974Z,4.85
2023-03-16T00:47:33.988Z,4.47
2023-03-16T00:50:01.666Z,4.22
2023-03-16T00:52:29.415Z,4.82
2023-03-16T00:54:56.645Z,4.35
2023-03-16T00:57:25.094Z,4.50
2023-03-16T00:59:52.582Z,3.80
2023-03-16T01:02:23.229Z,4.00
2023-03-16T01:04:50.360Z,3.80
2023-03-16T01:07:17.906Z,4.20
2023-03-16T01:09:44.259Z,3.83
2023-03-16T01:12:14.641Z,4.10
2023-03-16T01:14:42.128Z,4.15
2023-03-16T01:17:09.730Z,4.03
2023-03-16T01:19:37.809Z,5.30
2023-03-16T01:22:05.884Z,4.30
2023-03-16T01:24:32.652Z,4.47
2023-03-16T01:26:59.011Z,4.30
2023-03-16T01:29:25.344Z,4.07
2023-03-16T01:31:51.730Z,4.78
2023-03-16T01:34:18.772Z,4.57
2023-03-16T01:36:48.205Z,4.18
2023-03-16T01:39:15.506Z,4.20
2023-03-16T01:41:43.541Z,4.13
2023-03-16T01:44:14.708Z,4.68
2023-03-16T01:46:42.531Z,4.18
2023-03-16T01:49:20.244Z,4.70
2023-03-16T01:52:02.491Z,3.90
2023-03-16T01:54:37.526Z,4.65
2023-03-16T01:57:12.828Z,5.25
2023-03-16T01:59:41.315Z,4.82
2023-03-16T02:02:08.990Z,5.00
2023-03-16T02:04:44.745Z,4.88
2023-03-16T02:07:16.908Z,5.63
2023-03-16T02:09:46.510Z,4.97
2023-03-16T02:12:18.304Z,4.82
2023-03-16T02:14:46.121Z,4.32
2023-03-16T02:17:15.738Z,4.90
2023-03-16T02:19:53.231Z,4.28
2023-03-16T02:22:24.851Z,4.63
2023-03-16T02:24:54.833Z,4.25
2023-03-16T02:27:45.700Z,4.60
2023-03-16T02:30:19.072Z,4.28
2023-03-16T02:32:48.576Z,4.38
2023-03-16T02:35:14.969Z,4.40
2023-03-16T02:37:41.865Z,4.43
2023-03-16T02:40:28.495Z,4.47
2023-03-16T02:43:04.428Z,4.40
2023-03-16T02:45:39.248Z,4.30
2023-03-16T02:48:14.580Z,4.50
2023-03-16T02:50:48.728Z,4.57
2023-03-16T02:53:16.473Z,4.30
2023-03-16T02:55:43.485Z,4.65
2023-03-16T02:58:09.837Z,4.43
2023-03-16T03:00:36.194Z,4.55
2023-03-16T03:03:03.344Z,4.47
2023-03-16T03:05:29.751Z,4.03
2023-03-16T03:07:56.737Z,4.25
2023-03-16T03:10:23.276Z,4.50
2023-03-16T03:12:49.678Z,4.10
2023-03-16T03:15:16.898Z,4.72
2023-03-16T03:17:43.931Z,4.18
2023-03-16T03:20:18.369Z,4.38
2023-03-16T03:22:47.457Z,4.30
2023-03-16T03:25:16.161Z,4.38
2023-03-16T03:27:43.666Z,4.25
2023-03-16T03:30:12.855Z,4.65
2023-03-16T03:32:40.248Z,3.95
2023-03-16T03:35:08.078Z,4.70
2023-03-16T03:37:34.526Z,4.53
2023-03-16T03:40:00.860Z,4.22
2023-03-16T03:42:27.242Z,4.97
2023-03-16T03:44:53.805Z,4.43
2023-03-16T03:47:20.607Z,4.68
2023-03-16T03:49:47.027Z,4.78
2023-03-16T03:52:13.405Z,4.90
2023-03-16T03:54:39.861Z,4.35
2023-03-16T03:57:06.322Z,4.70
2023-03-16T03:59:32.714Z,4.05
2023-03-16T04:01:59.097Z,4.68
2023-03-16T04:04:25.633Z,4.43
2023-03-16T04:06:52.013Z,4.32
2023-03-16T04:09:18.342Z,3.85
2023-03-16T04:11:44.871Z,3.90
2023-03-16T04:14:11.194Z,3.85
2023-03-16T04:16:37.593Z,3.95
2023-03-16T04:19:04.284Z,4.00
2023-03-16T04:21:31.121Z,3.83
2023-03-16T04:23:57.466Z,4.00
2023-03-16T04:26:25.612Z,4.22
2023-03-16T04:28:52.865Z,3.67
2023-03-16T04:31:19.239Z,3.90
2023-03-16T04:33:45.755Z,3.60
2023-03-16T04:36:12.150Z,3.85
2023-03-16T04:38:38.498Z,3.78
2023-03-16T04:41:06.353Z,4.13
2023-03-16T04:43:36.922Z,3.17
2023-03-16T04:46:04.495Z,3.65
2023-03-16T04:48:32.195Z,4.13
2023-03-16T04:50:59.586Z,3.63
2023-03-16T04:53:25.968Z,3.45
2023-03-16T04:55:52.358Z,4.00
2023-03-16T04:58:18.788Z,3.63
2023-03-16T05:00:45.484Z,3.22
2023-03-16T05:03:11.845Z,3.33
2023-03-16T05:05:39.265Z,3.80
2023-03-16T05:08:07.054Z,3.88
2023-03-16T05:10:34.437Z,3.65
2023-03-16T05:13:00.909Z,3.65
2023-03-16T05:15:27.421Z,3.25
2023-03-16T05:17:58.593Z,3.95
2023-03-16T05:20:25.624Z,3.40
2023-03-16T05:22:51.999Z,3.30
2023-03-16T05:25:19.636Z,3.58
2023-03-16T05:27:48.765Z,3.80
2023-03-16T05:30:18.903Z,3.50
2023-03-16T05:32:46.223Z,3.78
2023-03-16T05:35:13.610Z,2.88
2023-03-16T05:37:44.161Z,3.42
2023-03-16T05:40:19.167Z,3.80
2023-03-16T05:42:53.993Z,3.75
2023-03-16T05:45:20.630Z,3.70
2023-03-16T05:47:47.167Z,3.53
2023-03-16T05:50:16.782Z,3.45
2023-03-16T05:52:44.719Z,3.70
2023-03-16T05:55:12.513Z,3.25
2023-03-16T05:57:38.848Z,4.03
2023-03-16T06:00:14.547Z,3.25
2023-03-16T06:05:11.210Z,3.75
2023-03-16T06:07:37.647Z,3.47
2023-03-16T06:10:05.163Z,3.70
2023-03-16T06:12:31.684Z,3.80
2023-03-16T06:14:58.068Z,3.40
2023-03-16T06:17:24.366Z,3.70
2023-03-16T06:19:51.308Z,3.35
2023-03-16T06:22:18.378Z,3.13
2023-03-16T06:24:44.868Z,3.55
2023-03-16T06:27:11.622Z,3.58
2023-03-16T06:29:37.971Z,3.40
2023-03-16T06:32:05.011Z,3.60
2023-03-16T06:34:31.404Z,3.30
2023-03-16T06:36:57.809Z,3.60
2023-03-16T06:39:24.303Z,3.25
2023-03-16T06:41:50.755Z,3.30
2023-03-16T06:44:17.079Z,3.50
2023-03-16T06:46:43.463Z,3.58
2023-03-16T06:49:09.780Z,3.10
2023-03-16T06:51:36.122Z,3.42
2023-03-16T06:54:02.486Z,3.38
2023-03-16T06:56:28.870Z,2.97
2023-03-16T06:58:55.484Z,3.58
2023-03-16T07:01:22.826Z,3.30
2023-03-16T07:03:49.501Z,3.30
2023-03-16T07:06:17.211Z,4.00
2023-03-16T07:08:44.052Z,3.58
2023-03-16T07:11:10.560Z,3.58
2023-03-16T07:13:37.343Z,3.63
2023-03-16T07:16:04.779Z,3.60
2023-03-16T07:18:31.653Z,3.33
2023-03-16T07:20:58.413Z,3.45
2023-03-16T07:23:25.042Z,3.60
2023-03-16T07:25:52.086Z,3.00
2023-03-16T07:28:19.400Z,3.15
2023-03-16T07:31:02.596Z,3.85
2023-03-16T07:33:30.494Z,3.53
2023-03-16T07:35:56.829Z,3.08
2023-03-16T07:38:23.390Z,3.38
2023-03-16T07:40:52.126Z,3.58
2023-03-16T07:43:18.484Z,3.53
2023-03-16T07:45:49.995Z,3.38
2023-03-16T07:48:16.978Z,3.65
2023-03-16T07:50:44.042Z,3.15
2023-03-16T07:53:10.719Z,4.00
2023-03-16T07:55:38.828Z,3.38
2023-03-16T07:58:06.131Z,3.67
2023-03-16T08:00:33.686Z,3.50
2023-03-16T08:03:00.422Z,3.22
2023-03-16T08:05:27.925Z,3.97
2023-03-16T08:07:56.031Z,3.60
2023-03-16T08:10:23.114Z,3.83
2023-03-16T08:12:49.572Z,3.70
2023-03-16T08:15:16.117Z,3.30
2023-03-16T08:17:42.889Z,3.15
2023-03-16T08:20:12.576Z,3.53
2023-03-16T08:22:38.938Z,3.60
2023-03-16T08:25:06.487Z,3.05
2023-03-16T08:27:33.030Z,3.13
2023-03-16T08:30:04.970Z,2.95
2023-03-16T08:32:32.577Z,3.67
2023-03-16T08:35:00.385Z,2.78
2023-03-16T08:37:27.442Z,2.95
2023-03-16T08:39:54.215Z,3.25
2023-03-16T08:42:21.190Z,2.90
2023-03-16T08:44:50.890Z,3.00
2023-03-16T08:47:17.877Z,3.45
2023-03-16T08:49:44.759Z,3.20
2023-03-16T08:52:12.759Z,2.92
2023-03-16T08:54:39.783Z,3.22
2023-03-16T08:57:06.156Z,3.50
2023-03-16T08:59:32.514Z,2.83
2023-03-16T09:01:58.978Z,2.75
2023-03-16T09:04:25.516Z,3.45
2023-03-16T09:07:05.948Z,3.45
2023-03-16T09:09:35.481Z,2.83
2023-03-16T09:12:04.132Z,2.60
2023-03-16T09:14:30.804Z,2.55
2023-03-16T09:16:57.186Z,3.03
2023-03-16T09:19:24.972Z,2.83
2023-03-16T09:21:51.373Z,2.80
2023-03-16T09:24:17.760Z,2.75
2023-03-16T09:26:44.324Z,2.70
2023-03-16T09:29:10.895Z,2.53
2023-03-16T09:31:37.489Z,3.55
2023-03-16T09:34:04.830Z,2.53
2023-03-16T09:36:31.210Z,2.50
2023-03-16T09:38:57.581Z,2.55
2023-03-16T09:42:04.664Z,2.80
2023-03-16T09:44:48.591Z,2.35
2023-03-16T09:47:16.684Z,2.88
2023-03-16T09:49:48.941Z,2.72
2023-03-16T09:52:26.434Z,2.70
2023-03-16T09:55:16.400Z,2.65
2023-03-16T09:57:44.773Z,2.70
2023-03-16T10:00:17.695Z,2.53
2023-03-16T10:03:13.511Z,2.38
2023-03-16T10:05:40.763Z,2.30
2023-03-16T10:08:07.625Z,2.28
2023-03-16T10:10:45.029Z,2.90
2023-03-16T10:13:31.213Z,2.40
2023-03-16T10:16:02.607Z,2.40
2023-03-16T10:18:33.135Z,2.55
2023-03-16T10:20:59.983Z,3.03
2023-03-16T10:23:26.382Z,2.78
2023-03-16T10:25:56.952Z,3.20
2023-03-16T10:28:28.423Z,2.33
2023-03-16T10:30:57.982Z,2.50
2023-03-16T10:33:33.500Z,2.50
2023-03-16T10:36:28.396Z,2.10
2023-03-16T10:38:59.629Z,2.33
2023-03-16T10:41:37.200Z,2.10
2023-03-16T10:44:12.008Z,2.17
2023-03-16T10:46:51.020Z,2.30
2023-03-16T10:49:28.631Z,2.20
2023-03-16T10:51:57.836Z,2.17
2023-03-16T10:54:58.181Z,2.00
2023-03-16T10:57:35.586Z,2.25
2023-03-16T11:00:13.496Z,1.98
2023-03-16T11:02:40.629Z,2.00
2023-03-16T11:05:19.222Z,2.40
2023-03-16T11:07:50.515Z,2.10
2023-03-16T11:10:30.731Z,2.50
2023-03-16T11:13:18.531Z,2.47
2023-03-16T11:15:57.551Z,2.88
2023-03-16T11:18:35.630Z,2.45
2023-03-16T11:21:26.900Z,2.40
2023-03-16T11:23:56.437Z,2.17
2023-03-16T11:26:32.206Z,2.28
2023-03-16T11:29:09.658Z,2.10
2023-03-16T11:31:46.225Z,2.28
2023-03-16T11:34:19.143Z,2.15
2023-03-16T11:37:17.833Z,2.50
2023-03-16T11:39:56.274Z,2.35
2023-03-16T11:42:29.117Z,2.65
2023-03-16T11:45:11.541Z,2.63
2023-03-16T11:48:09.154Z,1.95
2023-03-16T11:50:55.831Z,2.25
2023-03-16T11:53:59.958Z,2.10
2023-03-16T11:56:36.041Z,2.05
2023-03-16T11:59:15.351Z,2.47
2023-03-16T12:02:00.903Z,2.33
2023-03-16T12:05:10.465Z,2.65
2023-03-16T12:08:05.659Z,2.60
2023-03-16T12:10:43.770Z,2.38
2023-03-16T12:13:19.873Z,2.30
2023-03-16T12:15:52.053Z,2.28
2023-03-16T12:18:23.958Z,2.40
2023-03-16T12:20:57.682Z,2.40
2023-03-16T12:23:30.413Z,2.25
2023-03-16T12:26:01.147Z,2.17
2023-03-16T12:28:29.781Z,2.22
2023-03-16T12:31:11.026Z,2.35
2023-03-16T12:34:08.208Z,2.72
2023-03-16T12:37:17.125Z,2.30
2023-03-16T12:40:07.475Z,2.30
2023-03-16T12:43:01.274Z,2.40
2023-03-16T12:45:35.269Z,2.38
2023-03-16T12:48:25.067Z,2.40
2023-03-16T12:50:55.136Z,1.65
2023-03-16T12:53:43.640Z,3.17
2023-03-16T12:56:13.428Z,4.60
2023-03-16T12:58:45.405Z,3.63
2023-03-16T13:01:15.205Z,3.42
2023-03-16T13:03:42.921Z,2.47
2023-03-16T13:06:18.918Z,2.60
2023-03-16T13:11:16.303Z,1.95
2023-03-16T13:14:08.685Z,2.35
2023-03-16T13:16:37.504Z,2.40
2023-03-16T13:19:26.328Z,2.20
2023-03-16T13:22:20.779Z,2.00
2023-03-16T13:25:12.676Z,2.20
2023-03-16T13:27:40.663Z,2.10
2023-03-16T13:30:34.689Z,2.08
2023-03-16T13:33:27.089Z,2.08
2023-03-16T13:35:56.188Z,2.30
2023-03-16T13:38:27.518Z,2.50
2023-03-16T13:40:57.378Z,2.00
2023-03-16T13:43:29.728Z,2.50
2023-03-16T13:45:56.307Z,1.70
2023-03-16T13:48:23.072Z,2.22
2023-03-16T13:50:54.406Z,2.30
2023-03-16T13:53:24.657Z,1.88
2023-03-16T13:55:52.844Z,2.03
2023-03-16T13:58:28.567Z,2.30
2023-03-16T14:00:57.234Z,2.20
2023-03-16T14:03:30.150Z,2.08
2023-03-16T14:05:57.618Z,2.00
2023-03-16T14:08:24.940Z,1.80
2023-03-16T14:10:59.163Z,2.10
2023-03-16T14:13:32.297Z,1.58
2023-03-16T14:16:06.441Z,1.75
2023-03-16T14:18:40.652Z,1.80
2023-03-16T14:21:10.257Z,1.73
2023-03-16T14:23:44.467Z,1.88
2023-03-16T14:26:14.951Z,2.25
2023-03-16T14:28:54.290Z,1.90
2023-03-16T14:31:21.879Z,1.75
2023-03-16T14:33:48.822Z,1.85
2023-03-16T14:36:17.913Z,1.63
2023-03-16T14:38:48.723Z,1.90
2023-03-16T14:41:27.035Z,1.75
2023-03-16T14:43:59.529Z,1.73
2023-03-16T14:46:32.999Z,1.65
2023-03-16T14:49:08.714Z,2.05
2023-03-16T14:51:38.162Z,1.60
2023-03-16T14:54:18.945Z,1.73
2023-03-16T14:56:50.808Z,1.60
2023-03-16T14:59:17.699Z,1.70
2023-03-16T15:01:45.144Z,1.60
2023-03-16T15:04:16.364Z,1.77
2023-03-16T15:06:42.789Z,1.70
2023-03-16T15:09:27.965Z,1.60
2023-03-16T15:11:55.528Z,1.60
2023-03-16T15:14:41.856Z,1.60
2023-03-16T15:17:09.405Z,1.55
2023-03-16T15:19:37.106Z,1.88
2023-03-16T15:22:04.615Z,1.88
2023-03-16T15:24:32.801Z,1.60
2023-03-16T15:27:00.573Z,1.73
2023-03-16T15:29:27.138Z,2.00
2023-03-16T15:31:54.684Z,1.85
2023-03-16T15:34:22.439Z,1.63
2023-03-16T15:36:49.393Z,1.40
2023-03-16T15:39:25.399Z,1.98
2023-03-16T15:46:44.756Z,1.88
2023-03-16T15:49:11.178Z,1.90
2023-03-16T15:51:37.927Z,2.10
2023-03-16T15:54:07.019Z,1.77
2023-03-16T15:56:51.043Z,2.05
2023-03-16T15:59:22.166Z,1.63
2023-03-16T16:01:48.831Z,2.00
2023-03-16T16:04:23.143Z,2.10
2023-03-16T16:06:51.718Z,2.00
2023-03-16T16:09:18.259Z,2.20
2023-03-16T16:11:47.187Z,2.15
2023-03-16T16:14:16.847Z,2.05
2023-03-16T16:16:46.063Z,2.08
2023-03-16T16:19:21.930Z,2.40
2023-03-16T16:21:48.774Z,2.20
2023-03-16T16:24:17.597Z,2.25
2023-03-16T16:26:53.325Z,1.88
2023-03-16T16:29:27.418Z,2.17
2023-03-16T16:31:54.123Z,2.20
2023-03-16T16:34:24.237Z,2.30
2023-03-16T16:36:51.140Z,2.10
2023-03-16T16:39:17.609Z,2.25
2023-03-16T16:41:44.258Z,2.30
2023-03-16T16:44:28.538Z,2.28
2023-03-16T16:46:55.421Z,2.10
2023-03-16T16:49:28.154Z,1.83
2023-03-16T16:51:55.382Z,2.13
2023-03-16T16:54:28.673Z,2.50
2023-03-16T16:56:58.029Z,2.30
2023-03-16T16:59:28.871Z,2.22
2023-03-16T17:01:55.317Z,2.25
2023-03-16T17:04:24.559Z,3.17
2023-03-16T17:06:55.268Z,2.90
2023-03-16T17:09:22.204Z,3.47
2023-03-16T17:11:48.907Z,2.90
2023-03-16T17:14:18.691Z,2.78
2023-03-16T17:16:47.611Z,2.83
2023-03-16T17:19:23.494Z,2.63
2023-03-16T17:21:55.502Z,2.67
2023-03-16T17:24:22.632Z,2.72
2023-03-16T17:26:52.753Z,2.63
2023-03-16T17:29:24.306Z,2.50
2023-03-16T17:31:51.354Z,2.35
2023-03-16T17:34:23.714Z,2.53
2023-03-16T17:36:51.112Z,2.40
2023-03-16T17:39:32.047Z,2.97
2023-03-16T17:42:01.858Z,2.17
2023-03-16T17:44:34.543Z,2.50
2023-03-16T17:47:01.262Z,2.50
2023-03-16T17:49:28.518Z,2.72
2023-03-16T17:51:55.796Z,2.97
2023-03-16T17:54:22.214Z,2.53
2023-03-16T17:56:51.951Z,2.60
2023-03-16T17:59:22.813Z,2.65
2023-03-16T18:01:49.432Z,2.53
2023-03-16T18:04:21.128Z,2.42
2023-03-16T18:06:48.012Z,3.20
2023-03-16T18:09:15.889Z,2.65
2023-03-16T18:11:46.536Z,2.50
2023-03-16T18:14:35.269Z,2.60
2023-03-16T18:17:07.748Z,3.00
2023-03-16T18:19:34.215Z,3.15
2023-03-16T18:22:00.807Z,3.22
2023-03-16T18:24:28.162Z,3.42
2023-03-16T18:26:55.329Z,3.05
2023-03-16T18:29:22.371Z,2.85
2023-03-16T18:31:49.728Z,3.55
2023-03-16T18:34:23.719Z,3.42
2023-03-16T18:36:53.774Z,3.63
2023-03-16T18:39:22.056Z,2.92
2023-03-16T18:41:48.467Z,2.80
2023-03-16T18:44:19.881Z,3.40
2023-03-16T18:46:47.743Z,3.05
2023-03-16T18:49:23.396Z,3.40
2023-03-16T18:51:51.520Z,3.53
2023-03-16T18:54:29.182Z,3.92
2023-03-16T18:56:55.854Z,3.83
2023-03-16T18:59:22.275Z,3.33
2023-03-16T19:01:48.970Z,3.22
2023-03-16T19:04:21.551Z,3.20
2023-03-16T19:06:48.826Z,3.40
2023-03-16T19:09:22.499Z,3.33
2023-03-16T19:11:49.312Z,2.97
2023-03-16T19:14:18.379Z,3.35
2023-03-16T19:16:45.321Z,3.30
2023-03-16T19:19:13.090Z,3.08
2023-03-16T19:21:39.657Z,3.45
2023-03-16T19:24:07.113Z,3.20
2023-03-16T19:26:35.334Z,3.53
2023-03-16T19:29:03.760Z,3.00
2023-03-16T19:31:32.486Z,3.53
2023-03-16T19:33:59.076Z,3.35
2023-03-16T19:36:30.430Z,3.75
2023-03-16T19:38:57.988Z,3.25
2023-03-16T19:41:36.932Z,4.18
2023-03-16T19:44:13.169Z,3.33
2023-03-16T19:46:40.469Z,3.55
2023-03-16T19:49:15.476Z,3.33
2023-03-16T19:51:41.934Z,3.60
2023-03-16T19:54:21.005Z,3.88
2023-03-16T19:56:47.780Z,3.53
2023-03-16T19:59:14.633Z,3.55
2023-03-16T20:01:41.293Z,3.80
2023-03-16T20:04:26.049Z,3.50
2023-03-16T20:06:53.816Z,3.60
2023-03-16T20:09:20.961Z,4.18
2023-03-16T20:11:48.219Z,4.28
2023-03-16T20:14:19.639Z,3.75
2023-03-16T20:16:48.013Z,3.75
2023-03-16T20:19:15.493Z,4.00
2023-03-16T20:21:42.570Z,4.03
2023-03-16T20:24:18.636Z,3.95
2023-03-16T20:26:46.584Z,4.30
2023-03-16T20:29:29.174Z,4.43
2023-03-16T20:31:56.153Z,4.70
2023-03-16T20:34:28.186Z,4.88
2023-03-16T20:36:54.992Z,5.07
2023-03-16T20:39:21.661Z,5.22
2023-03-16T20:41:49.148Z,5.03
2023-03-16T20:44:18.361Z,4.60
2023-03-16T20:46:47.036Z,4.30
2023-03-16T20:49:22.384Z,4.40
2023-03-16T20:51:50.017Z,4.35
2023-03-16T20:54:17.652Z,3.90
2023-03-16T20:56:44.519Z,4.25
2023-03-16T20:59:20.391Z,3.88
2023-03-16T21:01:47.889Z,4.18
2023-03-16T21:04:20.940Z,3.92
2023-03-16T21:06:51.077Z,4.13
2023-03-16T21:09:19.232Z,4.22
2023-03-16T21:11:45.950Z,4.43
2023-03-16T21:14:18.368Z,4.45
2023-03-16T21:16:45.090Z,4.32
2023-03-16T21:19:18.027Z,4.25
2023-03-16T21:21:44.768Z,4.45
2023-03-16T21:24:11.557Z,4.70
2023-03-16T21:26:39.408Z,4.57
2023-03-16T21:29:12.631Z,4.00
2023-03-16T21:31:39.112Z,4.35
2023-03-16T21:34:05.662Z,4.68
2023-03-16T21:36:32.129Z,4.72
2023-03-16T21:38:58.441Z,4.10
2023-03-16T21:41:25.607Z,4.22
2023-03-16T21:43:52.541Z,4.20
2023-03-16T21:46:22.539Z,4.45
2023-03-16T21:48:52.177Z,4.57
2023-03-16T21:51:25.267Z,3.88
2023-03-16T21:53:53.393Z,4.43
2023-03-16T21:56:22.828Z,4.18
2023-03-16T21:58:50.021Z,4.40
2023-03-16T22:01:29.298Z,4.13
2023-03-16T22:04:01.005Z,4.53
2023-03-16T22:06:30.319Z,4.05
2023-03-16T22:08:57.839Z,4.05
2023-03-16T22:11:29.839Z,4.43
2023-03-16T22:13:58.007Z,4.50
2023-03-16T22:16:31.374Z,4.13
2023-03-16T22:18:58.168Z,4.40
2023-03-16T22:21:39.191Z,4.50
2023-03-16T22:24:13.662Z,4.68
2023-03-16T22:26:40.281Z,4.07
2023-03-16T22:29:30.375Z,4.72
2023-03-16T22:32:04.103Z,4.88
2023-03-16T22:34:37.154Z,4.90
2023-03-16T22:37:04.329Z,4.35
2023-03-16T22:39:37.624Z,4.65
2023-03-16T22:42:25.030Z,4.72
2023-03-16T22:44:51.598Z,4.38
2023-03-16T22:47:26.387Z,4.35
2023-03-16T22:49:53.853Z,4.53
2023-03-16T22:52:24.874Z,4.40
2023-03-16T22:54:51.175Z,4.30
2023-03-16T22:57:17.637Z,4.60
2023-03-16T22:59:45.743Z,4.63
2023-03-16T23:02:16.516Z,4.68
2023-03-16T23:04:42.983Z,4.10
2023-03-16T23:07:13.900Z,4.55
2023-03-16T23:09:40.673Z,4.20
2023-03-16T23:12:14.679Z,4.30
2023-03-16T23:14:42.090Z,4.35
2023-03-16T23:17:26.933Z,4.03
2023-03-16T23:19:53.228Z,4.57
2023-03-16T23:22:19.610Z,4.25
2023-03-16T23:24:45.986Z,4.32
2023-03-16T23:27:18.399Z,4.32
2023-03-16T23:29:45.795Z,4.28
2023-03-16T23:32:19.424Z,3.97
2023-03-16T23:34:45.959Z,4.30
2023-03-16T23:37:12.528Z,4.68
2023-03-16T23:39:39.880Z,4.00
2023-03-16T23:42:07.117Z,4.15
2023-03-16T23:44:33.723Z,3.92
2023-03-16T23:47:00.540Z,4.28
2023-03-16T23:49:32.516Z,3.95
2023-03-16T23:52:02.001Z,3.97
2023-03-16T23:54:31.216Z,4.00
2023-03-16T23:56:57.917Z,4.00
2023-03-16T23:59:25.414Z,4.13
